sensor_id;sensor_type;location;lat;lon;timestamp;pressure;altitude;pressure_sealevel;temperature;humidity
71907;BME280;59781;52.090;5.030;2023-09-30T00:01:01;102468.94;;;12.31;100.00
71907;BME280;59781;52.090;5.030;2023-09-30T00:03:27;102473.78;;;12.27;100.00
71907;BME280;59781;52.090;5.030;2023-09-30T00:05:53;102485.88;;;12.43;100.00
71907;BME280;59781;52.090;5.030;2023-09-30T00:08:19;102483.72;;;12.37;100.00
71907;BME280;59781;52.090;5.030;2023-09-30T00:10:45;102480.88;;;12.38;100.00
71907;BME280;59781;52.090;5.030;2023-09-30T00:13:12;102486.56;;;12.25;100.00
71907;BME280;59781;52.090;5.030;2023-09-30T00:15:38;102484.72;;;12.35;100.00
71907;BME280;59781;52.090;5.030;2023-09-30T00:18:04;102482.59;;;12.20;100.00
71907;BME280;59781;52.090;5.030;2023-09-30T00:20:31;102485.31;;;12.39;100.00
71907;BME280;59781;52.090;5.030;2023-09-30T00:22:57;102499.53;;;12.31;100.00
71907;BME280;59781;52.090;5.030;2023-09-30T00:25:23;102490.41;;;12.32;100.00
71907;BME280;59781;52.090;5.030;2023-09-30T00:27:49;102495.22;;;12.29;100.00
71907;BME280;59781;52.090;5.030;2023-09-30T00:30:15;102503.47;;;12.27;100.00
71907;BME280;59781;52.090;5.030;2023-09-30T00:32:41;102497.94;;;12.48;100.00
71907;BME280;59781;52.090;5.030;2023-09-30T00:35:07;102506.78;;;12.41;100.00
71907;BME280;59781;52.090;5.030;2023-09-30T00:37:38;102514.72;;;12.42;100.00
71907;BME280;59781;52.090;5.030;2023-09-30T00:40:05;102510.75;;;12.46;100.00
71907;BME280;59781;52.090;5.030;2023-09-30T00:42:32;102491.97;;;12.64;100.00
71907;BME280;59781;52.090;5.030;2023-09-30T00:44:57;102501.22;;;12.61;100.00
71907;BME280;59781;52.090;5.030;2023-09-30T00:47:23;102511.31;;;12.50;100.00
71907;BME280;59781;52.090;5.030;2023-09-30T00:49:50;102509.47;;;12.41;100.00
71907;BME280;59781;52.090;5.030;2023-09-30T00:52:17;102499.66;;;12.49;100.00
71907;BME280;59781;52.090;5.030;2023-09-30T00:54:44;102512.31;;;12.29;100.00
71907;BME280;59781;52.090;5.030;2023-09-30T00:57:12;102513.56;;;12.16;100.00
71907;BME280;59781;52.090;5.030;2023-09-30T00:59:38;102522.25;;;12.00;100.00
71907;BME280;59781;52.090;5.030;2023-09-30T01:02:05;102523.69;;;11.73;100.00
71907;BME280;59781;52.090;5.030;2023-09-30T01:04:31;102520.16;;;11.73;100.00
71907;BME280;59781;52.090;5.030;2023-09-30T01:06:57;102528.16;;;11.84;100.00
71907;BME280;59781;52.090;5.030;2023-09-30T01:09:25;102536.19;;;11.74;100.00
71907;BME280;59781;52.090;5.030;2023-09-30T01:11:51;102531.19;;;11.70;100.00
71907;BME280;59781;52.090;5.030;2023-09-30T01:14:30;102530.16;;;11.82;100.00
71907;BME280;59781;52.090;5.030;2023-09-30T01:16:58;102545.97;;;12.06;100.00
71907;BME280;59781;52.090;5.030;2023-09-30T01:19:24;102551.69;;;12.13;100.00
71907;BME280;59781;52.090;5.030;2023-09-30T01:21:53;102541.41;;;12.06;100.00
71907;BME280;59781;52.090;5.030;2023-09-30T01:24:29;102541.56;;;12.05;100.00
71907;BME280;59781;52.090;5.030;2023-09-30T01:26:56;102550.94;;;12.01;100.00
71907;BME280;59781;52.090;5.030;2023-09-30T01:29:22;102545.44;;;12.22;100.00
71907;BME280;59781;52.090;5.030;2023-09-30T01:31:50;102551.19;;;11.98;100.00
71907;BME280;59781;52.090;5.030;2023-09-30T01:34:16;102552.66;;;12.12;100.00
71907;BME280;59781;52.090;5.030;2023-09-30T01:36:43;102546.00;;;12.16;100.00
71907;BME280;59781;52.090;5.030;2023-09-30T01:39:10;102541.44;;;12.26;100.00
71907;BME280;59781;52.090;5.030;2023-09-30T01:41:40;102540.31;;;12.48;100.00
71907;BME280;59781;52.090;5.030;2023-09-30T01:44:07;102544.00;;;12.37;100.00
71907;BME280;59781;52.090;5.030;2023-09-30T01:46:35;102541.06;;;12.40;100.00
71907;BME280;59781;52.090;5.030;2023-09-30T01:49:02;102526.69;;;12.59;100.00
71907;BME280;59781;52.090;5.030;2023-09-30T01:51:29;102516.44;;;12.53;100.00
71907;BME280;59781;52.090;5.030;2023-09-30T01:53:57;102508.63;;;12.50;100.00
71907;BME280;59781;52.090;5.030;2023-09-30T01:56:23;102526.53;;;12.41;100.00
71907;BME280;59781;52.090;5.030;2023-09-30T01:58:48;102530.38;;;12.48;100.00
71907;BME280;59781;52.090;5.030;2023-09-30T02:01:14;102533.34;;;12.74;100.00
71907;BME280;59781;52.090;5.030;2023-09-30T02:03:40;102536.59;;;12.68;100.00
71907;BME280;59781;52.090;5.030;2023-09-30T02:06:08;102527.09;;;12.64;100.00
71907;BME280;59781;52.090;5.030;2023-09-30T02:08:33;102537.91;;;12.54;100.00
71907;BME280;59781;52.090;5.030;2023-09-30T02:11:02;102537.34;;;12.70;100.00
71907;BME280;59781;52.090;5.030;2023-09-30T02:13:33;102537.63;;;12.57;100.00
71907;BME280;59781;52.090;5.030;2023-09-30T02:16:00;102534.91;;;12.67;100.00
71907;BME280;59781;52.090;5.030;2023-09-30T02:18:27;102539.91;;;12.81;100.00
71907;BME280;59781;52.090;5.030;2023-09-30T02:20:53;102544.13;;;12.93;100.00
71907;BME280;59781;52.090;5.030;2023-09-30T02:23:18;102539.31;;;12.78;100.00
71907;BME280;59781;52.090;5.030;2023-09-30T02:25:44;102535.19;;;12.74;100.00
71907;BME280;59781;52.090;5.030;2023-09-30T02:28:10;102527.66;;;12.58;100.00
71907;BME280;59781;52.090;5.030;2023-09-30T02:30:36;102533.47;;;12.82;100.00
71907;BME280;59781;52.090;5.030;2023-09-30T02:33:02;102531.19;;;12.68;100.00
71907;BME280;59781;52.090;5.030;2023-09-30T02:35:30;102517.69;;;12.78;100.00
71907;BME280;59781;52.090;5.030;2023-09-30T02:37:55;102519.66;;;12.95;100.00
71907;BME280;59781;52.090;5.030;2023-09-30T02:40:21;102520.06;;;13.00;100.00
71907;BME280;59781;52.090;5.030;2023-09-30T02:42:50;102525.50;;;13.00;100.00
71907;BME280;59781;52.090;5.030;2023-09-30T02:45:16;102516.91;;;13.05;100.00
71907;BME280;59781;52.090;5.030;2023-09-30T02:47:46;102510.34;;;13.07;100.00
71907;BME280;59781;52.090;5.030;2023-09-30T02:50:12;102519.38;;;12.98;100.00
71907;BME280;59781;52.090;5.030;2023-09-30T02:52:38;102521.66;;;12.93;100.00
71907;BME280;59781;52.090;5.030;2023-09-30T02:55:11;102531.31;;;12.96;100.00
71907;BME280;59781;52.090;5.030;2023-09-30T02:57:38;102520.38;;;12.87;100.00
71907;BME280;59781;52.090;5.030;2023-09-30T03:00:05;102515.41;;;12.83;100.00
71907;BME280;59781;52.090;5.030;2023-09-30T03:02:53;102528.47;;;12.97;100.00
71907;BME280;59781;52.090;5.030;2023-09-30T03:05:19;102528.03;;;13.11;100.00
71907;BME280;59781;52.090;5.030;2023-09-30T03:07:46;102507.28;;;12.92;100.00
71907;BME280;59781;52.090;5.030;2023-09-30T03:10:13;102509.72;;;12.76;100.00
71907;BME280;59781;52.090;5.030;2023-09-30T03:12:46;102515.06;;;13.05;100.00
71907;BME280;59781;52.090;5.030;2023-09-30T03:15:13;102518.25;;;12.91;100.00
71907;BME280;59781;52.090;5.030;2023-09-30T03:17:40;102525.91;;;12.86;100.00
71907;BME280;59781;52.090;5.030;2023-09-30T03:20:07;102513.66;;;13.01;100.00
71907;BME280;59781;52.090;5.030;2023-09-30T03:22:41;102511.25;;;13.08;100.00
71907;BME280;59781;52.090;5.030;2023-09-30T03:25:09;102512.84;;;12.81;100.00
71907;BME280;59781;52.090;5.030;2023-09-30T03:27:36;102506.88;;;12.78;100.00
71907;BME280;59781;52.090;5.030;2023-09-30T03:30:06;102508.53;;;13.08;100.00
71907;BME280;59781;52.090;5.030;2023-09-30T03:32:34;102511.09;;;13.19;100.00
71907;BME280;59781;52.090;5.030;2023-09-30T03:35:04;102513.97;;;12.98;100.00
71907;BME280;59781;52.090;5.030;2023-09-30T03:37:32;102518.09;;;12.92;100.00
71907;BME280;59781;52.090;5.030;2023-09-30T03:39:57;102518.50;;;12.98;100.00
71907;BME280;59781;52.090;5.030;2023-09-30T03:42:23;102522.16;;;13.16;100.00
71907;BME280;59781;52.090;5.030;2023-09-30T03:44:49;102516.53;;;13.00;100.00
71907;BME280;59781;52.090;5.030;2023-09-30T03:47:18;102524.78;;;12.98;100.00
71907;BME280;59781;52.090;5.030;2023-09-30T03:49:44;102516.69;;;12.98;100.00
71907;BME280;59781;52.090;5.030;2023-09-30T03:52:10;102509.13;;;12.92;100.00
71907;BME280;59781;52.090;5.030;2023-09-30T03:54:36;102518.94;;;13.03;100.00
71907;BME280;59781;52.090;5.030;2023-09-30T03:57:03;102526.06;;;12.94;100.00
71907;BME280;59781;52.090;5.030;2023-09-30T03:59:30;102520.06;;;13.00;100.00
71907;BME280;59781;52.090;5.030;2023-09-30T04:01:56;102523.34;;;13.04;100.00
71907;BME280;59781;52.090;5.030;2023-09-30T04:04:23;102515.91;;;13.06;100.00
71907;BME280;59781;52.090;5.030;2023-09-30T04:06:49;102515.34;;;13.12;100.00
71907;BME280;59781;52.090;5.030;2023-09-30T04:09:17;102510.69;;;12.85;100.00
71907;BME280;59781;52.090;5.030;2023-09-30T04:11:44;102515.56;;;12.81;100.00
71907;BME280;59781;52.090;5.030;2023-09-30T04:14:10;102526.22;;;12.92;100.00
71907;BME280;59781;52.090;5.030;2023-09-30T04:16:36;102525.22;;;12.93;100.00
71907;BME280;59781;52.090;5.030;2023-09-30T04:19:03;102523.66;;;12.81;100.00
71907;BME280;59781;52.090;5.030;2023-09-30T04:21:30;102520.97;;;12.72;100.00
71907;BME280;59781;52.090;5.030;2023-09-30T04:24:00;102526.88;;;13.04;100.00
71907;BME280;59781;52.090;5.030;2023-09-30T04:26:26;102523.91;;;12.88;100.00
71907;BME280;59781;52.090;5.030;2023-09-30T04:28:52;102530.66;;;12.74;100.00
71907;BME280;59781;52.090;5.030;2023-09-30T04:31:19;102530.19;;;12.98;100.00
71907;BME280;59781;52.090;5.030;2023-09-30T04:33:48;102527.50;;;12.88;100.00
71907;BME280;59781;52.090;5.030;2023-09-30T04:36:13;102531.63;;;12.92;100.00
71907;BME280;59781;52.090;5.030;2023-09-30T04:38:39;102534.63;;;12.80;100.00
71907;BME280;59781;52.090;5.030;2023-09-30T04:41:05;102536.03;;;12.93;100.00
71907;BME280;59781;52.090;5.030;2023-09-30T04:43:33;102539.38;;;13.15;100.00
71907;BME280;59781;52.090;5.030;2023-09-30T04:45:59;102532.44;;;13.03;100.00
71907;BME280;59781;52.090;5.030;2023-09-30T04:48:25;102539.69;;;13.12;100.00
71907;BME280;59781;52.090;5.030;2023-09-30T04:50:50;102548.84;;;12.82;100.00
71907;BME280;59781;52.090;5.030;2023-09-30T04:53:20;102554.81;;;12.85;100.00
71907;BME280;59781;52.090;5.030;2023-09-30T04:55:46;102544.59;;;12.79;100.00
71907;BME280;59781;52.090;5.030;2023-09-30T04:58:14;102561.94;;;12.86;100.00
71907;BME280;59781;52.090;5.030;2023-09-30T05:00:40;102565.47;;;12.87;100.00
71907;BME280;59781;52.090;5.030;2023-09-30T05:03:06;102558.13;;;12.79;100.00
71907;BME280;59781;52.090;5.030;2023-09-30T05:05:32;102555.97;;;12.83;100.00
71907;BME280;59781;52.090;5.030;2023-09-30T05:07:58;102559.53;;;12.83;100.00
71907;BME280;59781;52.090;5.030;2023-09-30T05:10:25;102545.84;;;12.95;100.00
71907;BME280;59781;52.090;5.030;2023-09-30T05:12:51;102547.84;;;12.92;100.00
71907;BME280;59781;52.090;5.030;2023-09-30T05:15:21;102554.69;;;12.77;100.00
71907;BME280;59781;52.090;5.030;2023-09-30T05:17:48;102550.56;;;12.63;100.00
71907;BME280;59781;52.090;5.030;2023-09-30T05:20:15;102553.28;;;12.63;100.00
71907;BME280;59781;52.090;5.030;2023-09-30T05:22:45;102555.28;;;12.61;100.00
71907;BME280;59781;52.090;5.030;2023-09-30T05:25:12;102554.13;;;12.64;100.00
71907;BME280;59781;52.090;5.030;2023-09-30T05:27:42;102554.97;;;12.64;100.00
71907;BME280;59781;52.090;5.030;2023-09-30T05:30:08;102548.00;;;12.72;100.00
71907;BME280;59781;52.090;5.030;2023-09-30T05:32:36;102550.88;;;12.60;100.00
71907;BME280;59781;52.090;5.030;2023-09-30T05:35:05;102564.38;;;12.60;100.00
71907;BME280;59781;52.090;5.030;2023-09-30T05:37:40;102564.22;;;12.43;100.00
71907;BME280;59781;52.090;5.030;2023-09-30T05:40:06;102567.06;;;12.41;100.00
71907;BME280;59781;52.090;5.030;2023-09-30T05:42:44;102565.22;;;12.51;100.00
71907;BME280;59781;52.090;5.030;2023-09-30T05:45:11;102553.81;;;12.67;100.00
71907;BME280;59781;52.090;5.030;2023-09-30T05:47:41;102562.94;;;12.66;100.00
71907;BME280;59781;52.090;5.030;2023-09-30T05:50:08;102560.09;;;12.48;100.00
71907;BME280;59781;52.090;5.030;2023-09-30T05:52:35;102555.13;;;12.44;100.00
71907;BME280;59781;52.090;5.030;2023-09-30T05:55:02;102557.50;;;12.18;100.00
71907;BME280;59781;52.090;5.030;2023-09-30T05:57:28;102562.94;;;12.56;100.00
71907;BME280;59781;52.090;5.030;2023-09-30T05:59:54;102559.13;;;12.69;100.00
71907;BME280;59781;52.090;5.030;2023-09-30T06:02:19;102566.38;;;12.49;100.00
71907;BME280;59781;52.090;5.030;2023-09-30T06:04:45;102573.59;;;12.48;100.00
71907;BME280;59781;52.090;5.030;2023-09-30T06:07:11;102564.38;;;12.31;100.00
71907;BME280;59781;52.090;5.030;2023-09-30T06:09:38;102562.22;;;12.45;100.00
71907;BME280;59781;52.090;5.030;2023-09-30T06:12:03;102557.38;;;12.29;100.00
71907;BME280;59781;52.090;5.030;2023-09-30T06:14:32;102563.75;;;12.28;100.00
71907;BME280;59781;52.090;5.030;2023-09-30T06:16:58;102560.81;;;12.41;100.00
71907;BME280;59781;52.090;5.030;2023-09-30T06:19:24;102567.09;;;12.60;100.00
71907;BME280;59781;52.090;5.030;2023-09-30T06:21:52;102564.22;;;12.52;100.00
71907;BME280;59781;52.090;5.030;2023-09-30T06:24:17;102566.63;;;12.65;100.00
71907;BME280;59781;52.090;5.030;2023-09-30T06:26:45;102570.91;;;12.77;100.00
71907;BME280;59781;52.090;5.030;2023-09-30T06:29:14;102572.03;;;12.75;100.00
71907;BME280;59781;52.090;5.030;2023-09-30T06:31:40;102578.72;;;13.00;100.00
71907;BME280;59781;52.090;5.030;2023-09-30T06:34:05;102579.41;;;13.11;100.00
71907;BME280;59781;52.090;5.030;2023-09-30T06:36:32;102595.09;;;13.08;100.00
71907;BME280;59781;52.090;5.030;2023-09-30T06:38:58;102601.63;;;12.96;100.00
71907;BME280;59781;52.090;5.030;2023-09-30T06:41:24;102603.91;;;13.10;100.00
71907;BME280;59781;52.090;5.030;2023-09-30T06:43:50;102602.06;;;13.20;100.00
71907;BME280;59781;52.090;5.030;2023-09-30T06:46:17;102598.22;;;13.23;100.00
71907;BME280;59781;52.090;5.030;2023-09-30T06:48:43;102600.88;;;13.42;100.00
71907;BME280;59781;52.090;5.030;2023-09-30T06:51:14;102603.06;;;13.29;100.00
71907;BME280;59781;52.090;5.030;2023-09-30T06:53:40;102603.19;;;13.27;100.00
71907;BME280;59781;52.090;5.030;2023-09-30T06:56:06;102599.69;;;13.54;100.00
71907;BME280;59781;52.090;5.030;2023-09-30T06:58:32;102601.50;;;13.63;100.00
71907;BME280;59781;52.090;5.030;2023-09-30T07:00:58;102607.50;;;13.67;100.00
71907;BME280;59781;52.090;5.030;2023-09-30T07:03:24;102614.88;;;13.37;100.00
71907;BME280;59781;52.090;5.030;2023-09-30T07:05:50;102616.56;;;13.75;100.00
71907;BME280;59781;52.090;5.030;2023-09-30T07:08:18;102604.25;;;14.18;100.00
71907;BME280;59781;52.090;5.030;2023-09-30T07:10:47;102606.03;;;14.90;100.00
71907;BME280;59781;52.090;5.030;2023-09-30T07:13:16;102591.75;;;15.58;100.00
71907;BME280;59781;52.090;5.030;2023-09-30T07:15:42;102604.25;;;15.51;100.00
71907;BME280;59781;52.090;5.030;2023-09-30T07:18:08;102599.91;;;15.58;100.00
71907;BME280;59781;52.090;5.030;2023-09-30T07:20:34;102582.38;;;15.78;100.00
71907;BME280;59781;52.090;5.030;2023-09-30T07:23:00;102603.03;;;15.71;100.00
71907;BME280;59781;52.090;5.030;2023-09-30T07:25:29;102577.31;;;16.50;100.00
71907;BME280;59781;52.090;5.030;2023-09-30T07:27:58;102581.66;;;16.94;100.00
71907;BME280;59781;52.090;5.030;2023-09-30T07:30:25;102591.91;;;16.41;100.00
71907;BME280;59781;52.090;5.030;2023-09-30T07:32:51;102602.06;;;16.73;100.00
71907;BME280;59781;52.090;5.030;2023-09-30T07:35:17;102593.50;;;17.41;100.00
71907;BME280;59781;52.090;5.030;2023-09-30T07:37:44;102595.63;;;18.18;100.00
71907;BME280;59781;52.090;5.030;2023-09-30T07:40:11;102595.22;;;18.60;100.00
71907;BME280;59781;52.090;5.030;2023-09-30T07:42:37;102600.25;;;18.94;100.00
71907;BME280;59781;52.090;5.030;2023-09-30T07:45:03;102595.69;;;19.09;100.00
71907;BME280;59781;52.090;5.030;2023-09-30T07:47:30;102599.47;;;19.08;100.00
71907;BME280;59781;52.090;5.030;2023-09-30T07:49:57;102588.53;;;19.61;100.00
71907;BME280;59781;52.090;5.030;2023-09-30T07:52:22;102588.59;;;19.38;100.00
71907;BME280;59781;52.090;5.030;2023-09-30T07:54:48;102596.88;;;18.92;100.00
71907;BME280;59781;52.090;5.030;2023-09-30T07:57:14;102592.22;;;18.47;100.00
71907;BME280;59781;52.090;5.030;2023-09-30T07:59:40;102586.31;;;18.04;100.00
71907;BME280;59781;52.090;5.030;2023-09-30T08:02:05;102587.22;;;17.16;100.00
71907;BME280;59781;52.090;5.030;2023-09-30T08:04:32;102581.88;;;18.11;100.00
71907;BME280;59781;52.090;5.030;2023-09-30T08:06:57;102576.78;;;18.85;100.00
71907;BME280;59781;52.090;5.030;2023-09-30T08:09:23;102566.03;;;18.06;100.00
71907;BME280;59781;52.090;5.030;2023-09-30T08:11:50;102567.09;;;18.97;100.00
71907;BME280;59781;52.090;5.030;2023-09-30T08:14:19;102552.41;;;19.80;100.00
71907;BME280;59781;52.090;5.030;2023-09-30T08:16:44;102554.53;;;19.11;100.00
71907;BME280;59781;52.090;5.030;2023-09-30T08:19:10;102551.63;;;18.75;100.00
71907;BME280;59781;52.090;5.030;2023-09-30T08:21:36;102564.41;;;18.74;100.00
71907;BME280;59781;52.090;5.030;2023-09-30T08:24:02;102556.03;;;19.13;100.00
71907;BME280;59781;52.090;5.030;2023-09-30T08:26:28;102562.22;;;19.74;100.00
71907;BME280;59781;52.090;5.030;2023-09-30T08:28:53;102562.66;;;19.93;100.00
71907;BME280;59781;52.090;5.030;2023-09-30T08:31:19;102560.28;;;20.04;100.00
71907;BME280;59781;52.090;5.030;2023-09-30T08:33:47;102562.53;;;20.16;100.00
71907;BME280;59781;52.090;5.030;2023-09-30T08:36:13;102554.69;;;20.91;100.00
71907;BME280;59781;52.090;5.030;2023-09-30T08:38:40;102556.16;;;20.66;100.00
71907;BME280;59781;52.090;5.030;2023-09-30T08:41:07;102560.53;;;21.10;100.00
71907;BME280;59781;52.090;5.030;2023-09-30T08:43:40;102566.38;;;20.57;100.00
71907;BME280;59781;52.090;5.030;2023-09-30T08:46:06;102568.16;;;21.42;100.00
71907;BME280;59781;52.090;5.030;2023-09-30T08:48:34;102560.97;;;21.35;100.00
71907;BME280;59781;52.090;5.030;2023-09-30T08:51:02;102571.31;;;20.11;100.00
71907;BME280;59781;52.090;5.030;2023-09-30T08:53:31;102571.53;;;21.79;100.00
71907;BME280;59781;52.090;5.030;2023-09-30T08:55:57;102576.09;;;20.60;100.00
71907;BME280;59781;52.090;5.030;2023-09-30T08:58:28;102587.88;;;18.83;100.00
71907;BME280;59781;52.090;5.030;2023-09-30T09:00:55;102583.88;;;19.91;100.00
71907;BME280;59781;52.090;5.030;2023-09-30T09:03:22;102601.56;;;19.36;100.00
71907;BME280;59781;52.090;5.030;2023-09-30T09:05:54;102605.94;;;20.19;100.00
71907;BME280;59781;52.090;5.030;2023-09-30T09:08:26;102606.84;;;21.26;100.00
71907;BME280;59781;52.090;5.030;2023-09-30T09:10:59;102610.88;;;21.30;100.00
71907;BME280;59781;52.090;5.030;2023-09-30T09:13:26;102616.09;;;21.53;100.00
71907;BME280;59781;52.090;5.030;2023-09-30T09:16:07;102613.41;;;22.01;100.00
71907;BME280;59781;52.090;5.030;2023-09-30T09:18:34;102612.28;;;22.23;100.00
71907;BME280;59781;52.090;5.030;2023-09-30T09:23:43;102627.97;;;21.95;100.00
71907;BME280;59781;52.090;5.030;2023-09-30T09:26:27;102628.53;;;21.84;100.00
71907;BME280;59781;52.090;5.030;2023-09-30T09:29:01;102635.63;;;22.06;100.00
71907;BME280;59781;52.090;5.030;2023-09-30T09:31:29;102641.03;;;20.87;100.00
71907;BME280;59781;52.090;5.030;2023-09-30T09:33:57;102642.88;;;20.44;100.00
71907;BME280;59781;52.090;5.030;2023-09-30T09:36:39;102631.03;;;20.08;100.00
71907;BME280;59781;52.090;5.030;2023-09-30T09:39:06;102636.25;;;20.53;100.00
71907;BME280;59781;52.090;5.030;2023-09-30T09:41:32;102636.63;;;20.50;100.00
71907;BME280;59781;52.090;5.030;2023-09-30T09:43:59;102653.25;;;20.49;100.00
71907;BME280;59781;52.090;5.030;2023-09-30T09:46:27;102649.34;;;20.07;100.00
71907;BME280;59781;52.090;5.030;2023-09-30T09:48:54;102647.59;;;20.21;100.00
71907;BME280;59781;52.090;5.030;2023-09-30T09:51:23;102639.03;;;20.09;100.00
71907;BME280;59781;52.090;5.030;2023-09-30T09:53:49;102648.78;;;19.67;100.00
71907;BME280;59781;52.090;5.030;2023-09-30T09:56:16;102640.06;;;20.23;100.00
71907;BME280;59781;52.090;5.030;2023-09-30T09:58:47;102645.81;;;20.43;100.00
71907;BME280;59781;52.090;5.030;2023-09-30T10:01:15;102636.34;;;21.52;100.00
71907;BME280;59781;52.090;5.030;2023-09-30T10:03:41;102634.41;;;21.74;100.00
71907;BME280;59781;52.090;5.030;2023-09-30T10:06:08;102633.13;;;21.76;100.00
71907;BME280;59781;52.090;5.030;2023-09-30T10:08:42;102634.84;;;21.50;100.00
71907;BME280;59781;52.090;5.030;2023-09-30T10:11:17;102624.72;;;21.01;100.00
71907;BME280;59781;52.090;5.030;2023-09-30T10:13:57;102632.81;;;21.30;100.00
71907;BME280;59781;52.090;5.030;2023-09-30T10:19:11;102611.34;;;21.34;100.00
71907;BME280;59781;52.090;5.030;2023-09-30T10:24:43;102604.00;;;21.19;100.00
71907;BME280;59781;52.090;5.030;2023-09-30T10:40:51;102597.47;;;23.12;100.00
71907;BME280;59781;52.090;5.030;2023-09-30T10:43:30;102605.47;;;23.40;100.00
71907;BME280;59781;52.090;5.030;2023-09-30T10:45:59;102595.56;;;23.06;100.00
71907;BME280;59781;52.090;5.030;2023-09-30T10:50:56;102591.25;;;23.69;99.81
71907;BME280;59781;52.090;5.030;2023-09-30T10:53:27;102589.63;;;22.89;100.00
71907;BME280;59781;52.090;5.030;2023-09-30T10:55:55;102587.53;;;23.04;100.00
71907;BME280;59781;52.090;5.030;2023-09-30T10:58:45;102584.66;;;22.38;100.00
71907;BME280;59781;52.090;5.030;2023-09-30T11:01:14;102591.78;;;22.94;100.00
71907;BME280;59781;52.090;5.030;2023-09-30T11:03:42;102596.63;;;22.98;100.00
71907;BME280;59781;52.090;5.030;2023-09-30T11:06:11;102587.28;;;23.45;96.55
71907;BME280;59781;52.090;5.030;2023-09-30T11:08:59;102582.59;;;23.72;90.27
71907;BME280;59781;52.090;5.030;2023-09-30T11:11:46;102574.16;;;23.54;91.39
71907;BME280;59781;52.090;5.030;2023-09-30T11:14:30;102593.66;;;23.33;95.23
71907;BME280;59781;52.090;5.030;2023-09-30T11:16:59;102577.50;;;23.83;92.49
71907;BME280;59781;52.090;5.030;2023-09-30T11:19:34;102569.97;;;24.10;92.47
71907;BME280;59781;52.090;5.030;2023-09-30T11:22:02;102566.53;;;24.14;89.95
71907;BME280;59781;52.090;5.030;2023-09-30T11:24:29;102561.06;;;23.43;89.39
71907;BME280;59781;52.090;5.030;2023-09-30T11:26:55;102547.09;;;24.09;86.50
71907;BME280;59781;52.090;5.030;2023-09-30T11:29:21;102543.47;;;23.57;87.43
71907;BME280;59781;52.090;5.030;2023-09-30T11:31:48;102544.16;;;24.04;83.88
71907;BME280;59781;52.090;5.030;2023-09-30T11:34:17;102556.00;;;23.27;89.76
71907;BME280;59781;52.090;5.030;2023-09-30T11:39:29;102568.00;;;23.65;89.11
71907;BME280;59781;52.090;5.030;2023-09-30T11:41:56;102568.06;;;23.26;85.78
71907;BME280;59781;52.090;5.030;2023-09-30T11:44:24;102582.22;;;23.62;86.08
71907;BME280;59781;52.090;5.030;2023-09-30T11:47:02;102574.66;;;22.92;92.14
71907;BME280;59781;52.090;5.030;2023-09-30T11:49:35;102578.59;;;21.60;100.00
71907;BME280;59781;52.090;5.030;2023-09-30T11:52:06;102580.22;;;21.48;100.00
71907;BME280;59781;52.090;5.030;2023-09-30T11:54:43;102579.13;;;21.14;100.00
71907;BME280;59781;52.090;5.030;2023-09-30T11:57:12;102584.09;;;21.32;100.00
71907;BME280;59781;52.090;5.030;2023-09-30T11:59:43;102572.78;;;21.42;100.00
71907;BME280;59781;52.090;5.030;2023-09-30T12:02:11;102577.25;;;21.22;100.00
71907;BME280;59781;52.090;5.030;2023-09-30T12:04:41;102565.34;;;20.80;100.00
71907;BME280;59781;52.090;5.030;2023-09-30T12:07:07;102556.81;;;20.68;100.00
71907;BME280;59781;52.090;5.030;2023-09-30T12:09:33;102554.94;;;20.97;100.00
71907;BME280;59781;52.090;5.030;2023-09-30T12:12:03;102555.97;;;21.24;100.00
71907;BME280;59781;52.090;5.030;2023-09-30T12:14:29;102552.09;;;21.11;100.00
71907;BME280;59781;52.090;5.030;2023-09-30T12:16:56;102538.09;;;21.00;100.00
71907;BME280;59781;52.090;5.030;2023-09-30T12:19:23;102541.69;;;21.56;100.00
71907;BME280;59781;52.090;5.030;2023-09-30T12:21:48;102538.47;;;21.46;100.00
71907;BME280;59781;52.090;5.030;2023-09-30T12:24:15;102544.22;;;21.58;100.00
71907;BME280;59781;52.090;5.030;2023-09-30T12:26:43;102542.91;;;21.47;100.00
71907;BME280;59781;52.090;5.030;2023-09-30T12:29:20;102547.59;;;21.60;100.00
71907;BME280;59781;52.090;5.030;2023-09-30T12:31:49;102551.59;;;21.57;100.00
71907;BME280;59781;52.090;5.030;2023-09-30T12:34:18;102546.53;;;21.54;100.00
71907;BME280;59781;52.090;5.030;2023-09-30T12:36:44;102539.56;;;21.58;100.00
71907;BME280;59781;52.090;5.030;2023-09-30T12:39:10;102545.78;;;21.39;100.00
71907;BME280;59781;52.090;5.030;2023-09-30T12:41:40;102543.09;;;21.45;100.00
71907;BME280;59781;52.090;5.030;2023-09-30T12:44:08;102543.38;;;21.57;100.00
71907;BME280;59781;52.090;5.030;2023-09-30T12:46:34;102550.81;;;21.70;98.30
71907;BME280;59781;52.090;5.030;2023-09-30T12:49:06;102546.22;;;21.77;100.00
71907;BME280;59781;52.090;5.030;2023-09-30T12:51:33;102552.91;;;21.33;98.30
71907;BME280;59781;52.090;5.030;2023-09-30T12:54:01;102549.69;;;20.95;100.00
71907;BME280;59781;52.090;5.030;2023-09-30T12:56:27;102540.16;;;21.19;100.00
71907;BME280;59781;52.090;5.030;2023-09-30T12:58:55;102540.66;;;21.29;100.00
71907;BME280;59781;52.090;5.030;2023-09-30T13:01:21;102540.16;;;21.47;100.00
71907;BME280;59781;52.090;5.030;2023-09-30T13:03:48;102543.72;;;21.19;100.00
71907;BME280;59781;52.090;5.030;2023-09-30T13:06:14;102543.66;;;21.06;100.00
71907;BME280;59781;52.090;5.030;2023-09-30T13:08:41;102538.25;;;20.91;100.00
71907;BME280;59781;52.090;5.030;2023-09-30T13:11:07;102529.19;;;20.91;100.00